sensor_id;sensor_type;location;lat;lon;timestamp;pressure;altitude;pressure_sealevel;temperature;humidity
56174;BME280;42058;52.308;20.924;2022-11-18T00:01:25;99725.02;;;-0.52;100.00
56174;BME280;42058;52.308;20.924;2022-11-18T00:03:52;99715.98;;;-0.52;100.00
56174;BME280;42058;52.308;20.924;2022-11-18T00:06:24;99726.73;;;-0.51;100.00
56174;BME280;42058;52.308;20.924;2022-11-18T00:08:50;99720.73;;;-0.50;100.00
56174;BME280;42058;52.308;20.924;2022-11-18T00:11:19;99726.77;;;-0.48;100.00
56174;BME280;42058;52.308;20.924;2022-11-18T00:14:11;99725.04;;;-0.48;100.00
56174;BME280;42058;52.308;20.924;2022-11-18T00:16:46;99719.02;;;-0.48;100.00
56174;BME280;42058;52.308;20.924;2022-11-18T00:19:29;99713.83;;;-0.50;100.00
56174;BME280;42058;52.308;20.924;2022-11-18T00:21:56;99716.42;;;-0.48;100.00
56174;BME280;42058;52.308;20.924;2022-11-18T00:24:24;99716.41;;;-0.50;100.00
56174;BME280;42058;52.308;20.924;2022-11-18T00:26:50;99719.02;;;-0.48;100.00
56174;BME280;42058;52.308;20.924;2022-11-18T00:29:17;99721.61;;;-0.47;100.00
56174;BME280;42058;52.308;20.924;2022-11-18T00:31:44;99714.72;;;-0.46;100.00
56174;BME280;42058;52.308;20.924;2022-11-18T00:34:12;99711.29;;;-0.45;100.00
56174;BME280;42058;52.308;20.924;2022-11-18T00:36:41;99716.88;;;-0.44;100.00
56174;BME280;42058;52.308;20.924;2022-11-18T00:39:13;99713.45;;;-0.43;100.00
56174;BME280;42058;52.308;20.924;2022-11-18T00:41:41;99714.73;;;-0.45;100.00
56174;BME280;42058;52.308;20.924;2022-11-18T00:44:25;99715.16;;;-0.45;100.00
56174;BME280;42058;52.308;20.924;2022-11-18T00:46:53;99708.25;;;-0.46;100.00
56174;BME280;42058;52.308;20.924;2022-11-18T00:49:19;99703.53;;;-0.45;100.00
56174;BME280;42058;52.308;20.924;2022-11-18T00:51:45;99703.53;;;-0.42;100.00
56174;BME280;42058;52.308;20.924;2022-11-18T00:54:11;99700.53;;;-0.43;100.00
56174;BME280;42058;52.308;20.924;2022-11-18T00:56:37;99703.95;;;-0.44;100.00
56174;BME280;42058;52.308;20.924;2022-11-18T00:59:04;99703.13;;;-0.42;100.00
56174;BME280;42058;52.308;20.924;2022-11-18T01:01:30;99697.94;;;-0.43;100.00
56174;BME280;42058;52.308;20.924;2022-11-18T01:03:56;99700.95;;;-0.42;100.00
56174;BME280;42058;52.308;20.924;2022-11-18T01:06:22;99696.22;;;-0.43;100.00
56174;BME280;42058;52.308;20.924;2022-11-18T01:08:49;99700.11;;;-0.41;100.00
56174;BME280;42058;52.308;20.924;2022-11-18T01:11:15;99700.96;;;-0.41;100.00
56174;BME280;42058;52.308;20.924;2022-11-18T01:14:00;99707.02;;;-0.40;100.00
56174;BME280;42058;52.308;20.924;2022-11-18T01:16:27;99703.55;;;-0.41;100.00
56174;BME280;42058;52.308;20.924;2022-11-18T01:18:54;99694.09;;;-0.40;100.00
56174;BME280;42058;52.308;20.924;2022-11-18T01:21:21;99694.52;;;-0.39;100.00
56174;BME280;42058;52.308;20.924;2022-11-18T01:23:47;99693.67;;;-0.38;100.00
56174;BME280;42058;52.308;20.924;2022-11-18T01:26:15;99691.95;;;-0.37;100.00
56174;BME280;42058;52.308;20.924;2022-11-18T01:28:42;99698.42;;;-0.36;100.00
56174;BME280;42058;52.308;20.924;2022-11-18T01:31:14;99696.27;;;-0.36;100.00
56174;BME280;42058;52.308;20.924;2022-11-18T01:33:41;99690.22;;;-0.37;100.00
56174;BME280;42058;52.308;20.924;2022-11-18T01:36:20;99693.67;;;-0.35;100.00
56174;BME280;42058;52.308;20.924;2022-11-18T01:38:48;99689.81;;;-0.36;100.00
56174;BME280;42058;52.308;20.924;2022-11-18T01:41:16;99693.25;;;-0.36;100.00
56174;BME280;42058;52.308;20.924;2022-11-18T01:44:03;99684.19;;;-0.37;100.00
56174;BME280;42058;52.308;20.924;2022-11-18T01:46:32;99688.06;;;-0.37;100.00
56174;BME280;42058;52.308;20.924;2022-11-18T01:49:04;99687.63;;;-0.37;100.00
56174;BME280;42058;52.308;20.924;2022-11-18T01:51:36;99679.88;;;-0.37;100.00
56174;BME280;42058;52.308;20.924;2022-11-18T01:54:18;99674.28;;;-0.35;100.00
56174;BME280;42058;52.308;20.924;2022-11-18T01:56:46;99670.84;;;-0.35;100.00
56174;BME280;42058;52.308;20.924;2022-11-18T01:59:17;99673.00;;;-0.33;100.00
56174;BME280;42058;52.308;20.924;2022-11-18T02:01:46;99669.99;;;-0.31;100.00
56174;BME280;42058;52.308;20.924;2022-11-18T02:04:13;99671.30;;;-0.30;100.00
56174;BME280;42058;52.308;20.924;2022-11-18T02:06:41;99664.84;;;-0.28;100.00
56174;BME280;42058;52.308;20.924;2022-11-18T02:09:09;99663.98;;;-0.26;100.00
56174;BME280;42058;52.308;20.924;2022-11-18T02:11:35;99659.27;;;-0.25;100.00
56174;BME280;42058;52.308;20.924;2022-11-18T02:14:25;99656.26;;;-0.23;100.00
56174;BME280;42058;52.308;20.924;2022-11-18T02:17:26;99665.75;;;-0.22;100.00
56174;BME280;42058;52.308;20.924;2022-11-18T02:20:27;99659.30;;;-0.22;100.00
56174;BME280;42058;52.308;20.924;2022-11-18T02:23:23;99666.59;;;-0.23;100.00
56174;BME280;42058;52.308;20.924;2022-11-18T02:26:04;99666.59;;;-0.23;100.00
56174;BME280;42058;52.308;20.924;2022-11-18T02:29:08;99664.87;;;-0.22;100.00
56174;BME280;42058;52.308;20.924;2022-11-18T02:31:57;99660.56;;;-0.25;100.00
56174;BME280;42058;52.308;20.924;2022-11-18T02:34:52;99660.53;;;-0.28;100.00
56174;BME280;42058;52.308;20.924;2022-11-18T02:37:31;99654.07;;;-0.28;100.00
56174;BME280;42058;52.308;20.924;2022-11-18T02:42:49;99664.84;;;-0.30;100.00
56174;BME280;42058;52.308;20.924;2022-11-18T02:45:20;99660.55;;;-0.31;100.00
56174;BME280;42058;52.308;20.924;2022-11-18T02:47:48;99663.55;;;-0.33;100.00
56174;BME280;42058;52.308;20.924;2022-11-18T02:50:18;99664.39;;;-0.34;100.00
56174;BME280;42058;52.308;20.924;2022-11-18T02:52:49;99659.63;;;-0.37;100.00
56174;BME280;42058;52.308;20.924;2022-11-18T02:55:18;99656.63;;;-0.35;100.00
56174;BME280;42058;52.308;20.924;2022-11-18T02:57:47;99658.37;;;-0.34;100.00
56174;BME280;42058;52.308;20.924;2022-11-18T03:00:15;99656.19;;;-0.35;100.00
56174;BME280;42058;52.308;20.924;2022-11-18T03:02:44;99664.84;;;-0.33;100.00
56174;BME280;42058;52.308;20.924;2022-11-18T03:05:42;99667.83;;;-0.33;100.00
56174;BME280;42058;52.308;20.924;2022-11-18T03:08:12;99664.38;;;-0.35;100.00
56174;BME280;42058;52.308;20.924;2022-11-18T03:10:47;99657.03;;;-0.39;100.00
56174;BME280;42058;52.308;20.924;2022-11-18T03:13:27;99651.42;;;-0.43;100.00
56174;BME280;42058;52.308;20.924;2022-11-18T03:15:57;99647.97;;;-0.45;100.00
56174;BME280;42058;52.308;20.924;2022-11-18T03:21:22;99647.95;;;-0.47;100.00
56174;BME280;42058;52.308;20.924;2022-11-18T03:23:57;99648.38;;;-0.46;100.00
56174;BME280;42058;52.308;20.924;2022-11-18T03:26:28;99651.40;;;-0.49;100.00
56174;BME280;42058;52.308;20.924;2022-11-18T03:28:58;99658.27;;;-0.53;100.00
56174;BME280;42058;52.308;20.924;2022-11-18T03:34:17;99652.19;;;-0.60;100.00
56174;BME280;42058;52.308;20.924;2022-11-18T03:36:55;99657.33;;;-0.63;100.00
56174;BME280;42058;52.308;20.924;2022-11-18T03:39:24;99650.87;;;-0.66;100.00
56174;BME280;42058;52.308;20.924;2022-11-18T03:41:57;99649.14;;;-0.65;100.00
56174;BME280;42058;52.308;20.924;2022-11-18T03:44:30;99657.77;;;-0.63;100.00
56174;BME280;42058;52.308;20.924;2022-11-18T03:47:05;99646.98;;;-0.64;100.00
56174;BME280;42058;52.308;20.924;2022-11-18T03:49:41;99648.28;;;-0.63;100.00
56174;BME280;42058;52.308;20.924;2022-11-18T03:52:14;99640.52;;;-0.64;100.00
56174;BME280;42058;52.308;20.924;2022-11-18T03:54:45;99639.23;;;-0.67;100.00
56174;BME280;42058;52.308;20.924;2022-11-18T03:57:34;99639.23;;;-0.67;100.00
56174;BME280;42058;52.308;20.924;2022-11-18T04:00:19;99639.65;;;-0.69;100.00
56174;BME280;42058;52.308;20.924;2022-11-18T04:02:46;99643.93;;;-0.70;100.00
56174;BME280;42058;52.308;20.924;2022-11-18T04:05:16;99640.50;;;-0.69;100.00
56174;BME280;42058;52.308;20.924;2022-11-18T04:07:50;99643.52;;;-0.69;100.00
56174;BME280;42058;52.308;20.924;2022-11-18T04:10:26;99645.22;;;-0.70;100.00
56174;BME280;42058;52.308;20.924;2022-11-18T04:13:06;99649.08;;;-0.71;100.00
56174;BME280;42058;52.308;20.924;2022-11-18T04:15:47;99641.34;;;-0.73;100.00
56174;BME280;42058;52.308;20.924;2022-11-18T04:18:13;99649.94;;;-0.74;100.00
56174;BME280;42058;52.308;20.924;2022-11-18T04:20:39;99649.08;;;-0.74;100.00
56174;BME280;42058;52.308;20.924;2022-11-18T04:23:06;99651.65;;;-0.76;100.00
56174;BME280;42058;52.308;20.924;2022-11-18T04:25:33;99649.48;;;-0.75;100.00
56174;BME280;42058;52.308;20.924;2022-11-18T04:27:59;99651.65;;;-0.76;100.00
56174;BME280;42058;52.308;20.924;2022-11-18T04:30:25;99645.61;;;-0.75;100.00
56174;BME280;42058;52.308;20.924;2022-11-18T04:32:51;99652.08;;;-0.73;100.00
56174;BME280;42058;52.308;20.924;2022-11-18T04:35:17;99655.52;;;-0.76;100.00
56174;BME280;42058;52.308;20.924;2022-11-18T04:37:43;99652.50;;;-0.75;100.00
56174;BME280;42058;52.308;20.924;2022-11-18T04:40:10;99643.45;;;-0.77;100.00
56174;BME280;42058;52.308;20.924;2022-11-18T04:42:37;99643.45;;;-0.77;100.00
56174;BME280;42058;52.308;20.924;2022-11-18T04:45:04;99645.63;;;-0.76;100.00
56174;BME280;42058;52.308;20.924;2022-11-18T04:47:31;99634.81;;;-0.81;100.00
56174;BME280;42058;52.308;20.924;2022-11-18T04:49:57;99636.16;;;-0.76;100.00
56174;BME280;42058;52.308;20.924;2022-11-18T04:52:23;99640.45;;;-0.75;100.00
56174;BME280;42058;52.308;20.924;2022-11-18T04:54:49;99640.05;;;-0.73;100.00
56174;BME280;42058;52.308;20.924;2022-11-18T04:57:15;99640.47;;;-0.72;100.00
56174;BME280;42058;52.308;20.924;2022-11-18T04:59:41;99643.93;;;-0.70;100.00
56174;BME280;42058;52.308;20.924;2022-11-18T05:02:07;99639.21;;;-0.69;100.00
56174;BME280;42058;52.308;20.924;2022-11-18T05:04:34;99644.80;;;-0.68;100.00
56174;BME280;42058;52.308;20.924;2022-11-18T05:07:01;99640.52;;;-0.67;100.00
56174;BME280;42058;52.308;20.924;2022-11-18T05:09:29;99641.38;;;-0.67;100.00
56174;BME280;42058;52.308;20.924;2022-11-18T05:11:55;99639.62;;;-0.68;100.00
56174;BME280;42058;52.308;20.924;2022-11-18T05:14:40;99639.62;;;-0.68;100.00
56174;BME280;42058;52.308;20.924;2022-11-18T05:17:07;99638.36;;;-0.69;100.00
56174;BME280;42058;52.308;20.924;2022-11-18T05:19:37;99631.46;;;-0.69;100.00
56174;BME280;42058;52.308;20.924;2022-11-18T05:22:04;99643.95;;;-0.67;100.00
56174;BME280;42058;52.308;20.924;2022-11-18T05:24:31;99641.38;;;-0.67;100.00
56174;BME280;42058;52.308;20.924;2022-11-18T05:26:57;99638.78;;;-0.68;100.00
56174;BME280;42058;52.308;20.924;2022-11-18T05:29:23;99640.92;;;-0.68;100.00
56174;BME280;42058;52.308;20.924;2022-11-18T05:31:49;99634.91;;;-0.68;100.00
56174;BME280;42058;52.308;20.924;2022-11-18T05:34:16;99639.62;;;-0.68;100.00
56174;BME280;42058;52.308;20.924;2022-11-18T05:36:43;99636.63;;;-0.69;100.00
56174;BME280;42058;52.308;20.924;2022-11-18T05:39:10;99639.65;;;-0.69;100.00
56174;BME280;42058;52.308;20.924;2022-11-18T05:41:36;99632.30;;;-0.70;100.00
56174;BME280;42058;52.308;20.924;2022-11-18T05:44:20;99630.56;;;-0.74;100.00
56174;BME280;42058;52.308;20.924;2022-11-18T05:46:47;99630.11;;;-0.75;100.00
56174;BME280;42058;52.308;20.924;2022-11-18T05:49:13;99628.40;;;-0.76;100.00
56174;BME280;42058;52.308;20.924;2022-11-18T05:51:39;99627.11;;;-0.76;100.00
56174;BME280;42058;52.308;20.924;2022-11-18T05:54:07;99630.98;;;-0.76;100.00
56174;BME280;42058;52.308;20.924;2022-11-18T05:56:37;99631.84;;;-0.75;100.00
56174;BME280;42058;52.308;20.924;2022-11-18T05:59:05;99630.98;;;-0.76;100.00
56174;BME280;42058;52.308;20.924;2022-11-18T06:01:47;99631.41;;;-0.75;100.00
56174;BME280;42058;52.308;20.924;2022-11-18T06:04:18;99635.72;;;-0.75;100.00
56174;BME280;42058;52.308;20.924;2022-11-18T06:06:48;99631.81;;;-0.79;100.00
56174;BME280;42058;52.308;20.924;2022-11-18T06:09:17;99630.52;;;-0.79;100.00
56174;BME280;42058;52.308;20.924;2022-11-18T06:11:48;99632.70;;;-0.78;100.00
56174;BME280;42058;52.308;20.924;2022-11-18T06:14:29;99634.41;;;-0.80;100.00
56174;BME280;42058;52.308;20.924;2022-11-18T06:17:05;99633.12;;;-0.80;100.00
56174;BME280;42058;52.308;20.924;2022-11-18T06:19:34;99633.53;;;-0.79;100.00
56174;BME280;42058;52.308;20.924;2022-11-18T06:22:00;99634.39;;;-0.79;100.00
56174;BME280;42058;52.308;20.924;2022-11-18T06:24:27;99635.27;;;-0.80;100.00
56174;BME280;42058;52.308;20.924;2022-11-18T06:26:54;99636.98;;;-0.82;100.00
56174;BME280;42058;52.308;20.924;2022-11-18T06:29:20;99630.50;;;-0.83;100.00
56174;BME280;42058;52.308;20.924;2022-11-18T06:31:48;99639.55;;;-0.83;100.00
56174;BME280;42058;52.308;20.924;2022-11-18T06:34:14;99636.96;;;-0.83;100.00
56174;BME280;42058;52.308;20.924;2022-11-18T06:36:40;99646.03;;;-0.80;100.00
56174;BME280;42058;52.308;20.924;2022-11-18T06:39:07;99643.45;;;-0.80;100.00
56174;BME280;42058;52.308;20.924;2022-11-18T06:41:33;99649.05;;;-0.78;100.00
56174;BME280;42058;52.308;20.924;2022-11-18T06:43:59;99644.73;;;-0.77;100.00
56174;BME280;42058;52.308;20.924;2022-11-18T06:46:25;99642.16;;;-0.80;100.00
56174;BME280;42058;52.308;20.924;2022-11-18T06:49:10;99648.20;;;-0.78;100.00
56174;BME280;42058;52.308;20.924;2022-11-18T06:51:36;99652.49;;;-0.77;100.00
56174;BME280;42058;52.308;20.924;2022-11-18T06:54:02;99653.78;;;-0.77;100.00
56174;BME280;42058;52.308;20.924;2022-11-18T06:56:28;99652.94;;;-0.76;100.00
56174;BME280;42058;52.308;20.924;2022-11-18T06:58:56;99652.49;;;-0.77;100.00
56174;BME280;42058;52.308;20.924;2022-11-18T07:01:25;99655.95;;;-0.78;100.00
56174;BME280;42058;52.308;20.924;2022-11-18T07:03:53;99655.95;;;-0.78;100.00
56174;BME280;42058;52.308;20.924;2022-11-18T07:06:24;99657.66;;;-0.80;100.00
56174;BME280;42058;52.308;20.924;2022-11-18T07:08:53;99657.20;;;-0.81;100.00
56174;BME280;42058;52.308;20.924;2022-11-18T07:11:22;99656.78;;;-0.82;100.00
56174;BME280;42058;52.308;20.924;2022-11-18T07:13:52;99660.20;;;-0.83;100.00
56174;BME280;42058;52.308;20.924;2022-11-18T07:16:21;99663.21;;;-0.85;100.00
56174;BME280;42058;52.308;20.924;2022-11-18T07:18:50;99658.47;;;-0.84;100.00
56174;BME280;42058;52.308;20.924;2022-11-18T07:21:22;99658.03;;;-0.87;100.00
56174;BME280;42058;52.308;20.924;2022-11-18T07:23:49;99662.36;;;-0.86;100.00
56174;BME280;42058;52.308;20.924;2022-11-18T07:26:16;99663.21;;;-0.85;100.00
56174;BME280;42058;52.308;20.924;2022-11-18T07:28:43;99660.20;;;-0.83;100.00
56174;BME280;42058;52.308;20.924;2022-11-18T07:31:15;99660.20;;;-0.83;100.00
56174;BME280;42058;52.308;20.924;2022-11-18T07:33:40;99660.66;;;-0.82;100.00
56174;BME280;42058;52.308;20.924;2022-11-18T07:36:17;99661.50;;;-0.83;100.00
56174;BME280;42058;52.308;20.924;2022-11-18T07:38:44;99665.39;;;-0.82;100.00
56174;BME280;42058;52.308;20.924;2022-11-18T07:41:19;99661.95;;;-0.82;100.00
56174;BME280;42058;52.308;20.924;2022-11-18T07:43:45;99664.11;;;-0.80;100.00
56174;BME280;42058;52.308;20.924;2022-11-18T07:46:21;99670.58;;;-0.80;100.00
56174;BME280;42058;52.308;20.924;2022-11-18T07:48:45;99667.98;;;-0.77;100.00
56174;BME280;42058;52.308;20.924;2022-11-18T07:51:15;99677.48;;;-0.76;100.00
56174;BME280;42058;52.308;20.924;2022-11-18T07:53:42;99675.31;;;-0.75;100.00
56174;BME280;42058;52.308;20.924;2022-11-18T07:56:09;99669.75;;;-0.74;100.00
56174;BME280;42058;52.308;20.924;2022-11-18T07:58:36;99677.92;;;-0.73;100.00
56174;BME280;42058;52.308;20.924;2022-11-18T08:01:08;99679.20;;;-0.75;100.00
56174;BME280;42058;52.308;20.924;2022-11-18T08:03:35;99668.02;;;-0.74;100.00
56174;BME280;42058;52.308;20.924;2022-11-18T08:06:03;99669.75;;;-0.71;100.00
56174;BME280;42058;52.308;20.924;2022-11-18T08:08:30;99673.23;;;-0.69;100.00
56174;BME280;42058;52.308;20.924;2022-11-18T08:10:57;99676.67;;;-0.69;100.00
56174;BME280;42058;52.308;20.924;2022-11-18T08:13:24;99680.97;;;-0.68;100.00
56174;BME280;42058;52.308;20.924;2022-11-18T08:15:52;99680.13;;;-0.67;100.00
56174;BME280;42058;52.308;20.924;2022-11-18T08:18:18;99688.75;;;-0.65;100.00
56174;BME280;42058;52.308;20.924;2022-11-18T08:20:45;99689.64;;;-0.61;100.00
56174;BME280;42058;52.308;20.924;2022-11-18T08:23:11;99693.53;;;-0.60;100.00
56174;BME280;42058;52.308;20.924;2022-11-18T08:25:39;99696.14;;;-0.56;100.00
56174;BME280;42058;52.308;20.924;2022-11-18T08:28:06;99699.15;;;-0.55;100.00
56174;BME280;42058;52.308;20.924;2022-11-18T08:30:33;99706.06;;;-0.54;100.00
56174;BME280;42058;52.308;20.924;2022-11-18T08:33:00;99697.42;;;-0.55;100.00
56174;BME280;42058;52.308;20.924;2022-11-18T08:35:27;99698.31;;;-0.54;100.00
56174;BME280;42058;52.308;20.924;2022-11-18T08:37:54;99704.33;;;-0.54;100.00
56174;BME280;42058;52.308;20.924;2022-11-18T08:40:21;99704.77;;;-0.54;100.00
56174;BME280;42058;52.308;20.924;2022-11-18T08:42:48;99700.89;;;-0.54;100.00
56174;BME280;42058;52.308;20.924;2022-11-18T08:45:14;99705.61;;;-0.55;100.00
56174;BME280;42058;52.308;20.924;2022-11-18T08:47:41;99721.11;;;-0.55;100.00
56174;BME280;42058;52.308;20.924;2022-11-18T08:50:09;99712.07;;;-0.55;100.00
56174;BME280;42058;52.308;20.924;2022-11-18T08:52:36;99717.23;;;-0.55;100.00
56174;BME280;42058;52.308;20.924;2022-11-18T08:55:03;99714.23;;;-0.56;100.00
56174;BME280;42058;52.308;20.924;2022-11-18T08:57:30;99716.82;;;-0.56;100.00
56174;BME280;42058;52.308;20.924;2022-11-18T08:59:56;99718.50;;;-0.59;100.00
56174;BME280;42058;52.308;20.924;2022-11-18T09:02:23;99722.83;;;-0.57;100.00
56174;BME280;42058;52.308;20.924;2022-11-18T09:04:50;99717.23;;;-0.55;100.00
56174;BME280;42058;52.308;20.924;2022-11-18T09:07:18;99718.53;;;-0.55;100.00
56174;BME280;42058;52.308;20.924;2022-11-18T09:09:46;99724.16;;;-0.54;100.00
56174;BME280;42058;52.308;20.924;2022-11-18T09:12:12;99728.43;;;-0.55;100.00
56174;BME280;42058;52.308;20.924;2022-11-18T09:14:44;99725.44;;;-0.54;100.00
56174;BME280;42058;52.308;20.924;2022-11-18T09:17:10;99725.86;;;-0.53;100.00
56174;BME280;42058;52.308;20.924;2022-11-18T09:19:37;99720.69;;;-0.53;100.00
56174;BME280;42058;52.308;20.924;2022-11-18T09:22:04;99721.56;;;-0.51;100.00
56174;BME280;42058;52.308;20.924;2022-11-18T09:24:30;99718.59;;;-0.49;100.00
56174;BME280;42058;52.308;20.924;2022-11-18T09:26:57;99718.17;;;-0.47;100.00
56174;BME280;42058;52.308;20.924;2022-11-18T09:29:23;99713.86;;;-0.47;100.00
56174;BME280;42058;52.308;20.924;2022-11-18T09:31:51;99713.00;;;-0.44;100.00
56174;BME280;42058;52.308;20.924;2022-11-18T09:34:18;99713.90;;;-0.39;100.00
56174;BME280;42058;52.308;20.924;2022-11-18T09:36:44;99704.02;;;-0.38;100.00
56174;BME280;42058;52.308;20.924;2022-11-18T09:39:10;99703.59;;;-0.36;100.00
56174;BME280;42058;52.308;20.924;2022-11-18T09:41:48;99700.16;;;-0.32;100.00
56174;BME280;42058;52.308;20.924;2022-11-18T09:44:45;99696.30;;;-0.30;100.00
56174;BME280;42058;52.308;20.924;2022-11-18T09:47:30;99701.90;;;-0.28;100.00
56174;BME280;42058;52.308;20.924;2022-11-18T09:50:09;99698.47;;;-0.27;100.00
56174;BME280;42058;52.308;20.924;2022-11-18T09:53:19;99697.18;;;-0.27;100.00
56174;BME280;42058;52.308;20.924;2022-11-18T09:55:48;99701.06;;;-0.27;100.00
56174;BME280;42058;52.308;20.924;2022-11-18T09:58:19;99700.25;;;-0.18;100.00
56174;BME280;42058;52.308;20.924;2022-11-18T10:00:59;99692.92;;;-0.15;100.00
56174;BME280;42058;52.308;20.924;2022-11-18T10:03:28;99692.50;;;-0.16;100.00
56174;BME280;42058;52.308;20.924;2022-11-18T10:06:43;99701.58;;;-0.10;100.00
56174;BME280;42058;52.308;20.924;2022-11-18T10:09:13;99692.55;;;-0.07;100.00
56174;BME280;42058;52.308;20.924;2022-11-18T10:12:15;99702.46;;;-0.02;100.00
56174;BME280;42058;52.308;20.924;2022-11-18T10:17:33;99706.81;;;0.05;100.00
56174;BME280;42058;52.308;20.924;2022-11-18T10:20:22;99707.27;;;0.08;100.00
56174;BME280;42058;52.308;20.924;2022-11-18T10:22:55;99712.44;;;0.08;99.00
56174;BME280;42058;52.308;20.924;2022-11-18T10:25:41;99707.67;;;0.07;99.23
56174;BME280;42058;52.308;20.924;2022-11-18T10:28:25;99708.15;;;0.11;99.30
56174;BME280;42058;52.308;20.924;2022-11-18T10:31:07;99713.31;;;0.14;99.51
56174;BME280;42058;52.308;20.924;2022-11-18T10:33:35;99714.21;;;0.16;99.26
56174;BME280;42058;52.308;20.924;2022-11-18T10:38:45;99716.81;;;0.23;98.92
56174;BME280;42058;52.308;20.924;2022-11-18T10:41:14;99720.27;;;0.25;98.02
56174;BME280;42058;52.308;20.924;2022-11-18T10:43:45;99725.02;;;0.27;97.90
56174;BME280;42058;52.308;20.924;2022-11-18T10:46:27;99727.16;;;0.27;96.90
56174;BME280;42058;52.308;20.924;2022-11-18T10:49:11;99722.44;;;0.28;97.08
56174;BME280;42058;52.308;20.924;2022-11-18T10:54:22;99744.02;;;0.32;96.78
56174;BME280;42058;52.308;20.924;2022-11-18T10:56:55;99741.44;;;0.33;96.38
56174;BME280;42058;52.308;20.924;2022-11-18T10:59:37;99736.25;;;0.32;95.34
56174;BME280;42058;52.308;20.924;2022-11-18T11:02:17;99738.41;;;0.32;93.67
56174;BME280;42058;52.308;20.924;2022-11-18T11:04:47;99740.98;;;0.31;93.77
56174;BME280;42058;52.308;20.924;2022-11-18T11:07:28;99746.59;;;0.30;94.25
56174;BME280;42058;52.308;20.924;2022-11-18T11:12:43;99750.06;;;0.34;94.55
56174;BME280;42058;52.308;20.924;2022-11-18T11:15:26;99745.75;;;0.36;93.71
56174;BME280;42058;52.308;20.924;2022-11-18T11:18:17;99750.51;;;0.35;92.76
56174;BME280;42058;52.308;20.924;2022-11-18T11:21:11;99752.22;;;0.36;93.40
56174;BME280;42058;52.308;20.924;2022-11-18T11:23:38;99748.79;;;0.37;93.22
56174;BME280;42058;52.308;20.924;2022-11-18T11:26:19;99750.48;;;0.36;92.98
56174;BME280;42058;52.308;20.924;2022-11-18T11:32:09;99750.50;;;0.38;93.44
56174;BME280;42058;52.308;20.924;2022-11-18T11:43:39;99745.34;;;0.41;93.30
56174;BME280;42058;52.308;20.924;2022-11-18T11:46:22;99737.58;;;0.41;92.89
56174;BME280;42058;52.308;20.924;2022-11-18T11:49:15;99740.62;;;0.42;93.69
56174;BME280;42058;52.308;20.924;2022-11-18T11:52:03;99746.20;;;0.43;92.79
56174;BME280;42058;52.308;20.924;2022-11-18T11:54:44;99745.80;;;0.47;93.18
56174;BME280;42058;52.308;20.924;2022-11-18T11:57:22;99748.38;;;0.47;91.43
56174;BME280;42058;52.308;20.924;2022-11-18T11:59:59;99751.38;;;0.42;89.53
56174;BME280;42058;52.308;20.924;2022-11-18T12:05:40;99742.75;;;0.40;90.98
56174;BME280;42058;52.308;20.924;2022-11-18T12:08:01;99743.60;;;0.40;91.44
56174;BME280;42058;52.308;20.924;2022-11-18T12:19:13;99747.48;;;0.40;93.54
56174;BME280;42058;52.308;20.924;2022-11-18T12:24:34;99748.78;;;0.40;93.04
56174;BME280;42058;52.308;20.924;2022-11-18T12:27:58;99757.44;;;0.42;92.82
56174;BME280;42058;52.308;20.924;2022-11-18T12:32:39;99757.86;;;0.43;93.80
56174;BME280;42058;52.308;20.924;2022-11-18T12:51:57;99760.91;;;0.50;91.78
56174;BME280;42058;52.308;20.924;2022-11-18T12:54:42;99763.08;;;0.49;91.05
56174;BME280;42058;52.308;20.924;2022-11-18T12:57:22;99761.78;;;0.49;92.03
56174;BME280;42058;52.308;20.924;2022-11-18T12:59:49;99758.75;;;0.48;91.44
56174;BME280;42058;52.308;20.924;2022-11-18T13:05:10;99763.08;;;0.49;91.97
56174;BME280;42058;52.308;20.924;2022-11-18T13:08:01;99751.84;;;0.50;92.08
56174;BME280;42058;52.308;20.924;2022-11-18T13:10:43;99759.19;;;0.52;92.51
56174;BME280;42058;52.308;20.924;2022-11-18T13:13:27;99758.33;;;0.52;91.81
56174;BME280;42058;52.308;20.924;2022-11-18T13:15:58;99755.73;;;0.50;91.74
56174;BME280;42058;52.308;20.924;2022-11-18T13:18:50;99754.84;;;0.45;91.78
56174;BME280;42058;52.308;20.924;2022-11-18T13:21:25;99768.20;;;0.43;91.81
56174;BME280;42058;52.308;20.924;2022-11-18T13:24:17;99759.57;;;0.40;92.31
56174;BME280;42058;52.308;20.924;2022-11-18T13:26:43;99762.59;;;0.39;92.94
56174;BME280;42058;52.308;20.924;2022-11-18T13:32:19;99757.83;;;0.34;93.60
56174;BME280;42058;52.308;20.924;2022-11-18T13:34:51;99761.28;;;0.36;93.85
56174;BME280;42058;52.308;20.924;2022-11-18T13:37:29;99764.74;;;0.35;94.24
56174;BME280;42058;52.308;20.924;2022-11-18T13:39:57;99757.39;;;0.36;94.54
56174;BME280;42058;52.308;20.924;2022-11-18T13:42:26;99771.63;;;0.36;93.79
56174;BME280;42058;52.308;20.924;2022-11-18T13:44:59;99772.92;;;0.36;94.27
56174;BME280;42058;52.308;20.924;2022-11-18T13:52:39;99771.21;;;0.35;94.67
56174;BME280;42058;52.308;20.924;2022-11-18T13:55:23;99776.36;;;0.32;94.23
56174;BME280;42058;52.308;20.924;2022-11-18T13:58:05;99767.28;;;0.24;94.43
56174;BME280;42058;52.308;20.924;2022-11-18T14:00:56;99784.10;;;0.29;94.79
56174;BME280;42058;52.308;20.924;2022-11-18T14:03:29;99781.50;;;0.27;94.84
56174;BME280;42058;52.308;20.924;2022-11-18T14:06:00;99789.28;;;0.26;94.76
56174;BME280;42058;52.308;20.924;2022-11-18T14:08:29;99783.66;;;0.25;95.09
56174;BME280;42058;52.308;20.924;2022-11-18T14:11:00;99788.84;;;0.25;95.55
56174;BME280;42058;52.308;20.924;2022-11-18T14:13:36;99792.30;;;0.27;95.36
56174;BME280;42058;52.308;20.924;2022-11-18T14:18:49;99797.86;;;0.22;95.18
56174;BME280;42058;52.308;20.924;2022-11-18T14:21:31;99793.10;;;0.18;95.97
56174;BME280;42058;52.308;20.924;2022-11-18T14:24:00;99797.42;;;0.17;95.93
56174;BME280;42058;52.308;20.924;2022-11-18T14:29:00;99803.87;;;0.11;96.07
56174;BME280;42058;52.308;20.924;2022-11-18T14:31:30;99809.45;;;0.08;96.54
56174;BME280;42058;52.308;20.924;2022-11-18T14:36:50;99802.52;;;0.05;97.21